Time;durP1;ratioP1;P1;durP2;ratioP2;P2;SDS_P1;SDS_P2;PMS_P1;PMS_P2;Temp;Humidity;BMP_temperature;BMP_pressure;BME280_temperature;BME280_humidity;BME280_pressure;Samples;Min_cycle;Max_cycle;Signal;HPM_P1;HPM_P2
2024/04/12 00:01:41;;;;;;;8.48;3.03;;;12.90;99.90;;;;;;5413618;26;20232;-71
2024/04/12 00:04:09;;;;;;;3.90;2.80;;;12.80;99.90;;;;;;5421262;26;20382;-71
2024/04/12 00:06:37;;;;;;;5.68;3.03;;;12.80;99.90;;;;;;5419468;26;20244;-71
2024/04/12 00:09:09;;;;;;;7.43;2.85;;;12.90;99.90;;;;;;5418685;26;20241;-71
2024/04/12 00:11:38;;;;;;;5.05;2.83;;;12.90;99.90;;;;;;5417885;26;20275;-70
2024/04/12 00:14:05;;;;;;;8.85;3.25;;;12.90;99.90;;;;;;5389462;26;20238;-70
2024/04/12 00:16:31;;;;;;;5.72;3.13;;;12.90;99.90;;;;;;5382215;26;20241;-71
2024/04/12 00:19:07;;;;;;;5.03;3.03;;;12.90;99.90;;;;;;5386163;26;20228;-71
2024/04/12 00:21:41;;;;;;;7.70;3.05;;;12.80;99.90;;;;;;5403854;26;20590;-70
2024/04/12 00:24:11;;;;;;;4.00;2.53;;;12.80;99.90;;;;;;5417642;26;20241;-71
2024/04/12 00:26:37;;;;;;;7.43;2.83;;;12.70;99.90;;;;;;5398798;26;20237;-70
2024/04/12 00:29:07;;;;;;;4.47;2.80;;;12.60;99.90;;;;;;5351710;26;20245;-70
2024/04/12 00:31:42;;;;;;;5.82;2.75;;;12.60;99.90;;;;;;5394816;26;20341;-71
2024/04/12 00:34:08;;;;;;;4.10;2.63;;;12.50;99.90;;;;;;5403744;26;20776;-71
2024/04/12 00:36:34;;;;;;;5.32;2.58;;;12.50;99.90;;;;;;5375839;26;20583;-71
2024/04/12 00:39:01;;;;;;;4.97;2.28;;;12.50;99.90;;;;;;5418172;26;20237;-71
2024/04/12 00:41:26;;;;;;;2.92;2.03;;;12.40;99.90;;;;;;5420329;26;20289;-71
2024/04/12 00:43:52;;;;;;;4.85;2.17;;;12.40;99.90;;;;;;5423810;26;20826;-71
2024/04/12 00:46:24;;;;;;;4.88;2.45;;;12.30;99.90;;;;;;5400024;26;20249;-71
2024/04/12 00:48:57;;;;;;;3.50;2.45;;;12.40;99.90;;;;;;5385856;26;20245;-71
2024/04/12 00:51:26;;;;;;;6.28;2.97;;;12.30;99.90;;;;;;5384406;26;20242;-71
2024/04/12 00:53:59;;;;;;;5.57;2.70;;;12.40;99.90;;;;;;5383438;26;20712;-71
2024/04/12 00:56:29;;;;;;;4.53;2.20;;;12.30;99.90;;;;;;5382953;26;20343;-71
2024/04/12 00:58:59;;;;;;;3.83;2.65;;;12.30;99.90;;;;;;5386179;26;20346;-71
2024/04/12 01:01:25;;;;;;;15.52;3.20;;;12.30;99.90;;;;;;5417581;26;20244;-71
2024/04/12 01:03:55;;;;;;;7.47;2.45;;;12.30;99.90;;;;;;5385812;26;20294;-71
2024/04/12 01:06:25;;;;;;;5.85;2.95;;;12.20;99.90;;;;;;5389240;26;20237;-70
2024/04/12 01:08:54;;;;;;;7.53;2.63;;;12.20;99.90;;;;;;5384201;26;20229;-70
2024/04/12 01:11:21;;;;;;;3.95;2.80;;;12.10;99.90;;;;;;5392976;26;20280;-71
2024/04/12 01:13:49;;;;;;;5.53;3.33;;;12.10;99.90;;;;;;5367613;26;20242;-72
2024/04/12 01:16:15;;;;;;;6.53;2.53;;;12.10;99.90;;;;;;5394453;26;20236;-70
2024/04/12 01:18:44;;;;;;;4.47;2.88;;;12.00;99.90;;;;;;5404531;26;20859;-71
2024/04/12 01:21:10;;;;;;;4.70;2.60;;;12.10;99.90;;;;;;5417825;26;20304;-71
2024/04/12 01:23:48;;;;;;;5.00;2.80;;;12.00;99.90;;;;;;5398848;26;20738;-71
2024/04/12 01:26:17;;;;;;;5.75;3.20;;;12.00;99.90;;;;;;5369291;26;20793;-71
2024/04/12 01:28:43;;;;;;;3.67;2.30;;;12.00;99.90;;;;;;5383295;26;20622;-71
2024/04/12 01:31:15;;;;;;;5.30;2.35;;;11.90;99.90;;;;;;5387890;26;20739;-71
2024/04/12 01:33:49;;;;;;;6.25;2.92;;;11.80;99.90;;;;;;5410597;26;20634;-72
2024/04/12 01:36:19;;;;;;;3.88;2.45;;;11.80;99.90;;;;;;5364463;26;20751;-71
2024/04/12 01:38:56;;;;;;;5.60;2.50;;;11.70;99.90;;;;;;5408866;26;20341;-71
2024/04/12 01:41:31;;;;;;;5.35;2.50;;;11.70;99.90;;;;;;5416966;26;20244;-72
2024/04/12 01:44:04;;;;;;;4.18;2.42;;;11.80;99.90;;;;;;5416588;26;20650;-71
2024/04/12 01:46:31;;;;;;;5.18;2.65;;;11.70;99.90;;;;;;5385834;26;20246;-72
2024/04/12 01:49:00;;;;;;;4.55;2.53;;;11.60;99.90;;;;;;5414359;26;20232;-70
2024/04/12 01:51:26;;;;;;;3.47;2.65;;;11.60;99.90;;;;;;5416932;26;20739;-71
2024/04/12 01:53:55;;;;;;;2.50;2.20;;;11.50;99.90;;;;;;5416535;26;20241;-70
2024/04/12 01:56:22;;;;;;;3.00;2.10;;;11.50;99.90;;;;;;5417760;26;20686;-71
2024/04/12 01:58:48;;;;;;;3.25;2.22;;;11.50;99.90;;;;;;5417679;26;20329;-70
2024/04/12 02:01:16;;;;;;;3.53;2.40;;;11.50;99.90;;;;;;5386840;26;20272;-70
2024/04/12 02:03:44;;;;;;;4.43;2.30;;;11.50;99.90;;;;;;5394739;26;20363;-70
2024/04/12 02:06:15;;;;;;;4.35;2.38;;;11.50;99.90;;;;;;5385201;26;20729;-71
2024/04/12 02:08:42;;;;;;;3.80;2.70;;;11.50;99.90;;;;;;5394962;26;20751;-70
2024/04/12 02:11:07;;;;;;;3.35;2.50;;;11.40;99.90;;;;;;5414800;26;20312;-70
2024/04/12 02:13:37;;;;;;;3.35;2.40;;;11.40;99.90;;;;;;5384687;26;20275;-71
2024/04/12 02:16:06;;;;;;;6.57;2.33;;;11.40;99.90;;;;;;5363750;26;20327;-71
2024/04/12 02:18:33;;;;;;;4.43;2.58;;;11.40;99.90;;;;;;5401129;26;20237;-70
2024/04/12 02:21:06;;;;;;;4.28;2.60;;;11.30;99.90;;;;;;5350741;26;20245;-71
2024/04/12 02:23:32;;;;;;;4.68;2.75;;;11.30;99.90;;;;;;5380792;26;20636;-70
2024/04/12 02:25:59;;;;;;;4.43;2.42;;;11.30;99.90;;;;;;5381000;26;20280;-70
2024/04/12 02:28:26;;;;;;;4.43;2.45;;;11.20;99.90;;;;;;5384580;26;20234;-71
2024/04/12 02:30:54;;;;;;;5.22;2.60;;;11.20;99.90;;;;;;5366151;26;20238;-71
2024/04/12 02:33:21;;;;;;;5.70;3.38;;;11.20;99.90;;;;;;5385306;26;20241;-71
2024/04/12 02:35:58;;;;;;;4.25;2.45;;;11.10;99.90;;;;;;5421029;26;20233;-70
2024/04/12 02:38:26;;;;;;;2.78;2.58;;;11.10;99.90;;;;;;5362165;26;20797;-71
2024/04/12 02:40:52;;;;;;;5.93;2.72;;;11.10;99.90;;;;;;5383110;26;20237;-71
2024/04/12 02:43:18;;;;;;;3.28;2.67;;;11.10;99.90;;;;;;5387049;26;20626;-71
2024/04/12 02:45:50;;;;;;;3.50;2.38;;;11.10;99.90;;;;;;5385892;26;20238;-71
2024/04/12 02:48:22;;;;;;;3.63;2.70;;;11.10;99.90;;;;;;5381561;26;20234;-71
2024/04/12 02:50:56;;;;;;;4.47;2.93;;;11.10;99.90;;;;;;5380389;26;20237;-71
2024/04/12 02:53:25;;;;;;;4.07;2.47;;;11.10;99.90;;;;;;5359315;26;20248;-70
2024/04/12 02:56:03;;;;;;;5.97;2.78;;;11.10;99.90;;;;;;5387880;26;20254;-70
2024/04/12 02:58:38;;;;;;;3.05;2.38;;;11.10;99.90;;;;;;5402725;26;20688;-70
2024/04/12 03:01:13;;;;;;;3.47;2.63;;;11.10;99.90;;;;;;5349908;26;20268;-71
2024/04/12 03:03:46;;;;;;;4.03;2.70;;;11.10;99.90;;;;;;5361660;26;20247;-71
2024/04/12 03:06:24;;;;;;;4.27;2.50;;;11.00;99.90;;;;;;5384407;26;20241;-70
2024/04/12 03:08:58;;;;;;;2.97;2.47;;;11.00;99.90;;;;;;5414656;26;20276;-71
2024/04/12 03:11:33;;;;;;;5.73;2.90;;;11.00;99.90;;;;;;5394947;26;20293;-71
2024/04/12 03:14:04;;;;;;;6.85;2.70;;;10.90;99.90;;;;;;5440500;26;20339;-71
2024/04/12 03:16:31;;;;;;;3.43;2.60;;;11.00;99.90;;;;;;5431893;26;20301;-71
2024/04/12 03:18:57;;;;;;;5.10;3.00;;;11.10;99.90;;;;;;5415552;26;20233;-71
2024/04/12 03:21:30;;;;;;;6.47;2.70;;;11.00;99.90;;;;;;5415482;26;20240;-71
2024/04/12 03:23:57;;;;;;;5.03;2.45;;;11.10;99.90;;;;;;5431213;26;20298;-71
2024/04/12 03:26:27;;;;;;;4.30;2.45;;;11.10;99.90;;;;;;5453591;26;20228;-71
2024/04/12 03:28:58;;;;;;;3.83;2.78;;;11.10;99.90;;;;;;5452746;26;20278;-70
2024/04/12 03:31:27;;;;;;;2.95;2.65;;;11.00;99.90;;;;;;5418716;26;20249;-71
2024/04/12 03:33:54;;;;;;;2.90;2.53;;;11.00;99.90;;;;;;5385645;26;20278;-70
2024/04/12 03:36:27;;;;;;;4.93;3.03;;;10.90;99.90;;;;;;5416511;26;20244;-70
2024/04/12 03:41:58;;;;;;;3.53;2.80;;;10.90;99.90;;;;;;5444239;26;20227;-72
2024/04/12 03:44:25;;;;;;;4.27;3.13;;;10.90;99.90;;;;;;5447543;26;20721;-72
2024/04/12 03:46:52;;;;;;;2.38;1.95;;;10.80;99.90;;;;;;5422954;26;20266;-72
2024/04/12 03:49:20;;;;;;;2.42;1.85;;;10.90;99.90;;;;;;5450755;26;20733;-71
2024/04/12 03:51:47;;;;;;;3.67;2.08;;;11.80;99.90;;;;;;5461086;26;20312;-71
2024/04/12 03:54:21;;;;;;;5.78;2.60;;;12.40;99.90;;;;;;5458132;26;20235;-70
2024/04/12 03:56:51;;;;;;;2.40;2.10;;;12.80;99.90;;;;;;5452634;26;20283;-70
2024/04/12 03:59:17;;;;;;;4.82;1.85;;;13.00;99.90;;;;;;5422049;26;20654;-71
2024/04/12 04:01:44;;;;;;;3.08;2.30;;;13.20;99.90;;;;;;5454242;26;20243;-70
2024/04/12 04:04:17;;;;;;;3.05;2.42;;;13.40;99.90;;;;;;5423203;26;20603;-71
2024/04/12 04:06:44;;;;;;;7.30;2.60;;;13.40;99.90;;;;;;5456011;26;20282;-72
2024/04/12 04:09:12;;;;;;;3.70;2.75;;;12.70;99.90;;;;;;5417262;26;20372;-72
2024/04/12 04:11:42;;;;;;;3.67;2.50;;;12.10;99.90;;;;;;5447875;26;21182;-71
2024/04/12 04:14:13;;;;;;;5.18;2.80;;;11.70;99.90;;;;;;5453734;26;20302;-72
2024/04/12 04:16:39;;;;;;;5.47;2.95;;;11.40;99.90;;;;;;5454654;26;20310;-72
2024/04/12 04:19:12;;;;;;;3.25;2.78;;;11.20;99.90;;;;;;5422053;26;20244;-71
2024/04/12 04:21:41;;;;;;;4.43;2.90;;;11.00;99.90;;;;;;5422740;26;20252;-70
2024/04/12 04:24:10;;;;;;;3.77;2.73;;;11.00;99.90;;;;;;5432102;26;20245;-71
2024/04/12 04:26:40;;;;;;;6.00;2.87;;;10.80;99.90;;;;;;5453749;26;20228;-72
2024/04/12 04:29:09;;;;;;;3.53;2.85;;;10.70;99.90;;;;;;5421795;26;20274;-72
2024/04/12 04:31:47;;;;;;;5.40;2.83;;;10.60;99.90;;;;;;5453507;26;20240;-72
2024/04/12 04:34:13;;;;;;;3.63;2.63;;;10.50;99.90;;;;;;5453290;26;20231;-71
2024/04/12 04:36:39;;;;;;;4.50;2.90;;;10.40;99.90;;;;;;5454006;26;20274;-71
2024/04/12 04:39:08;;;;;;;5.90;3.27;;;10.40;99.90;;;;;;5410508;26;20768;-72
2024/04/12 04:41:38;;;;;;;4.90;3.00;;;10.40;99.90;;;;;;5442363;26;20235;-72
2024/04/12 04:44:06;;;;;;;6.53;3.30;;;10.40;99.90;;;;;;5454857;26;20239;-71
2024/04/12 04:46:32;;;;;;;4.30;3.23;;;10.30;99.90;;;;;;5454650;26;20279;-71
2024/04/12 04:48:57;;;;;;;3.83;2.60;;;10.30;99.90;;;;;;5454383;26;20342;-71
2024/04/12 04:51:23;;;;;;;7.63;3.67;;;10.40;99.90;;;;;;5410217;26;20305;-72
2024/04/12 04:53:52;;;;;;;7.50;3.47;;;10.40;99.90;;;;;;5446570;26;20270;-72
2024/04/12 04:56:30;;;;;;;5.57;3.40;;;10.40;99.90;;;;;;5424795;26;20774;-72
2024/04/12 04:58:56;;;;;;;5.17;2.73;;;10.50;99.90;;;;;;5423721;26;20247;-71
2024/04/12 05:01:25;;;;;;;3.50;3.03;;;10.40;99.90;;;;;;5444485;26;20237;-73
2024/04/12 05:03:52;;;;;;;7.20;3.20;;;10.40;99.90;;;;;;5445512;26;20251;-71
2024/04/12 05:06:24;;;;;;;8.45;3.22;;;10.50;99.90;;;;;;5454910;26;20320;-72
2024/04/12 05:09:00;;;;;;;7.47;4.10;;;10.60;99.90;;;;;;5440251;26;20248;-72
2024/04/12 05:11:29;;;;;;;7.87;3.50;;;10.60;99.90;;;;;;5454052;26;20236;-72
2024/04/12 05:14:05;;;;;;;3.70;2.73;;;10.60;99.90;;;;;;5496702;21;20262;-73
2024/04/12 05:16:32;;;;;;;7.57;3.00;;;10.70;99.90;;;;;;5445350;26;20238;-72
2024/04/12 05:19:07;;;;;;;4.00;3.10;;;10.80;99.90;;;;;;5456098;26;20235;-74
2024/04/12 05:21:38;;;;;;;7.18;3.42;;;10.90;99.90;;;;;;5476607;26;20227;-72
2024/04/12 05:24:09;;;;;;;5.53;3.30;;;10.90;99.90;;;;;;5461683;26;20345;-73
2024/04/12 05:26:41;;;;;;;6.50;3.40;;;10.90;99.90;;;;;;5420821;26;20287;-72
2024/04/12 05:29:13;;;;;;;3.97;3.10;;;11.00;99.90;;;;;;5451792;26;20283;-73
2024/04/12 05:31:42;;;;;;;4.30;3.30;;;11.20;99.90;;;;;;5453109;26;20280;-73
2024/04/12 05:34:11;;;;;;;8.88;3.45;;;11.30;99.90;;;;;;5452428;26;20236;-73
2024/04/12 05:36:37;;;;;;;5.20;2.97;;;11.30;99.90;;;;;;5421712;26;20243;-72
2024/04/12 05:39:08;;;;;;;3.05;2.85;;;11.40;99.90;;;;;;5456211;26;20317;-75
2024/04/12 05:41:44;;;;;;;5.05;3.13;;;11.50;99.90;;;;;;5440931;26;20348;-73
2024/04/12 05:44:18;;;;;;;5.28;2.72;;;11.70;99.90;;;;;;5453677;26;20274;-72
2024/04/12 05:46:43;;;;;;;6.07;2.83;;;11.90;99.90;;;;;;5450701;26;20279;-75
2024/04/12 05:49:09;;;;;;;8.18;3.10;;;12.00;99.90;;;;;;5420012;26;20246;-72
2024/04/12 05:51:42;;;;;;;4.68;3.40;;;11.90;99.90;;;;;;5453050;26;20240;-73
2024/04/12 05:54:10;;;;;;;8.25;3.28;;;11.90;99.90;;;;;;5452131;26;20236;-73
2024/04/12 05:56:39;;;;;;;8.77;3.22;;;12.00;99.90;;;;;;5452823;26;20247;-75
2024/04/12 06:02:01;;;;;;;5.47;3.05;;;12.40;99.90;;;;;;5453986;26;20239;-73
2024/04/12 06:04:27;;;;;;;5.68;3.10;;;12.70;99.90;;;;;;5452153;26;20787;-73
2024/04/12 06:06:54;;;;;;;6.13;3.70;;;12.90;99.90;;;;;;5420578;26;20248;-74
2024/04/12 06:09:20;;;;;;;8.23;3.75;;;12.90;99.90;;;;;;5450742;26;20240;-73
2024/04/12 06:11:50;;;;;;;6.55;3.63;;;13.00;99.90;;;;;;5450381;26;20316;-71
2024/04/12 06:14:23;;;;;;;6.97;3.25;;;13.00;99.90;;;;;;5453242;26;20248;-72
2024/04/12 06:16:56;;;;;;;3.70;3.05;;;13.10;99.90;;;;;;5452370;26;20282;-71
2024/04/12 06:19:25;;;;;;;4.85;2.92;;;13.10;99.90;;;;;;5441603;26;20255;-75
2024/04/12 06:21:51;;;;;;;5.85;3.50;;;13.20;99.90;;;;;;5458565;26;20831;-72
2024/04/12 06:24:29;;;;;;;3.53;3.20;;;13.50;99.90;;;;;;5419220;26;20251;-74
2024/04/12 06:26:55;;;;;;;5.57;3.40;;;13.60;99.90;;;;;;5421869;26;20239;-72
2024/04/12 06:29:22;;;;;;;9.10;3.28;;;13.70;99.90;;;;;;5454804;26;20619;-76
2024/04/12 06:31:53;;;;;;;9.57;4.18;;;13.90;99.90;;;;;;5420322;26;20263;-72
2024/04/12 06:34:19;;;;;;;5.88;3.67;;;14.00;99.90;;;;;;5451354;26;20717;-74
2024/04/12 06:36:46;;;;;;;9.48;3.95;;;13.90;99.90;;;;;;5410355;26;20274;-71
2024/04/12 06:39:13;;;;;;;8.60;3.90;;;14.10;99.90;;;;;;5420839;26;20330;-74
2024/04/12 06:41:45;;;;;;;8.18;5.55;;;14.30;99.90;;;;;;5444730;26;20228;-72
2024/04/12 06:44:15;;;;;;;6.65;4.53;;;14.60;99.90;;;;;;5448533;26;20632;-73
2024/04/12 06:46:43;;;;;;;7.43;4.28;;;14.80;99.90;;;;;;5425731;26;20235;-73
2024/04/12 06:49:09;;;;;;;8.02;3.90;;;14.80;99.90;;;;;;5420798;26;20705;-73
2024/04/12 06:51:43;;;;;;;10.23;5.57;;;15.00;99.90;;;;;;5453417;26;20305;-74
2024/04/12 06:54:09;;;;;;;10.48;4.35;;;14.90;99.90;;;;;;5443777;26;20239;-74
2024/04/12 06:56:35;;;;;;;4.95;4.05;;;14.70;99.90;;;;;;5455726;26;20262;-73
2024/04/12 06:59:07;;;;;;;5.18;4.35;;;14.40;99.90;;;;;;5460460;26;20243;-76
2024/04/12 07:01:34;;;;;;;5.15;3.95;;;14.40;99.90;;;;;;5428062;26;20341;-73
2024/04/12 07:04:05;;;;;;;5.05;4.15;;;14.40;99.90;;;;;;5448020;26;20240;-73
2024/04/12 07:06:32;;;;;;;6.53;4.43;;;14.80;99.90;;;;;;5422809;26;20269;-73
2024/04/12 07:08:58;;;;;;;8.43;4.45;;;15.00;99.90;;;;;;5391400;26;20243;-73
2024/04/12 07:11:24;;;;;;;16.40;4.07;;;15.30;99.90;;;;;;5453531;26;20232;-74
2024/04/12 07:13:50;;;;;;;4.70;4.15;;;15.50;99.90;;;;;;5420900;26;20239;-73
2024/04/12 07:16:20;;;;;;;9.27;4.10;;;15.80;99.90;;;;;;5420706;26;20252;-73
2024/04/12 07:18:47;;;;;;;7.15;4.65;;;16.00;99.90;;;;;;5453075;26;20228;-73
2024/04/12 07:21:15;;;;;;;9.98;3.42;;;16.30;99.90;;;;;;5449439;26;20299;-78
2024/04/12 07:23:49;;;;;;;7.55;3.60;;;16.40;99.90;;;;;;5457519;26;20247;-73
2024/04/12 07:26:24;;;;;;;7.40;4.38;;;16.50;99.90;;;;;;5423790;26;20239;-73
2024/04/12 07:28:58;;;;;;;7.93;4.38;;;16.60;99.90;;;;;;5452880;26;20294;-76
2024/04/12 07:31:30;;;;;;;6.72;4.60;;;16.70;99.90;;;;;;5454716;26;20248;-76
2024/04/12 07:33:59;;;;;;;7.72;4.32;;;16.80;99.90;;;;;;5452166;26;20236;-71
2024/04/12 07:36:30;;;;;;;4.72;3.80;;;17.00;99.90;;;;;;5451759;26;20584;-75
2024/04/12 07:39:01;;;;;;;6.45;4.10;;;16.90;99.90;;;;;;5421981;26;20737;-74
2024/04/12 07:41:32;;;;;;;9.77;4.40;;;16.90;99.90;;;;;;5454199;26;20239;-73
2024/04/12 07:43:58;;;;;;;6.28;4.20;;;17.00;99.90;;;;;;5424911;26;20256;-74
2024/04/12 07:46:27;;;;;;;7.03;3.95;;;17.20;99.90;;;;;;5453664;26;20232;-73
2024/04/12 07:48:57;;;;;;;10.77;4.22;;;17.40;99.90;;;;;;5419558;26;20316;-74
2024/04/12 07:51:31;;;;;;;7.68;4.10;;;17.60;99.90;;;;;;5452148;26;20239;-74
2024/04/12 07:54:03;;;;;;;6.15;4.43;;;17.60;99.90;;;;;;5444228;26;20276;-73
2024/04/12 07:56:49;;;;;;;6.43;4.30;;;17.60;99.90;;;;;;5453193;26;20287;-73
2024/04/12 07:59:25;;;;;;;8.60;3.88;;;17.70;99.90;;;;;;5451515;26;20240;-73
2024/04/12 08:01:51;;;;;;;6.38;4.30;;;17.90;99.90;;;;;;5441037;26;20360;-76
2024/04/12 08:04:25;;;;;;;9.70;4.07;;;18.10;99.90;;;;;;5451729;26;20232;-75
2024/04/12 08:09:25;;;;;;;7.68;4.10;;;18.60;99.90;;;;;;5452281;26;20235;-75
2024/04/12 08:11:51;;;;;;;10.30;4.28;;;18.70;99.90;;;;;;5451696;26;20345;-77
2024/04/12 08:14:22;;;;;;;9.05;4.43;;;18.70;99.90;;;;;;5449407;26;20255;-74
2024/04/12 08:16:52;;;;;;;9.23;4.90;;;18.90;99.90;;;;;;5455152;26;20624;-74
2024/04/12 08:19:21;;;;;;;8.23;4.30;;;19.10;99.90;;;;;;5451505;26;20235;-73
2024/04/12 08:21:54;;;;;;;10.48;4.32;;;19.20;99.90;;;;;;5439437;26;20270;-73
2024/04/12 08:24:23;;;;;;;7.78;4.55;;;19.20;99.90;;;;;;5438956;26;20312;-73
2024/04/12 08:26:51;;;;;;;9.85;4.07;;;19.40;99.90;;;;;;5454190;26;20802;-74
2024/04/12 08:29:26;;;;;;;12.73;4.38;;;19.50;99.90;;;;;;5422465;26;20741;-75
2024/04/12 08:32:11;;;;;;;10.45;4.00;;;19.70;99.90;;;;;;5423751;26;20239;-73
2024/04/12 08:34:44;;;;;;;6.82;4.18;;;19.60;99.90;;;;;;5421541;26;20259;-72
2024/04/12 08:37:14;;;;;;;9.50;4.50;;;19.80;99.90;;;;;;5454568;26;20426;-72
2024/04/12 08:39:43;;;;;;;7.43;4.10;;;19.90;99.90;;;;;;5455296;26;20275;-73
2024/04/12 08:42:14;;;;;;;6.20;4.13;;;20.10;99.90;;;;;;5420808;26;20327;-72
2024/04/12 08:44:40;;;;;;;6.20;4.20;;;20.10;99.90;;;;;;5453380;26;20239;-75
2024/04/12 08:47:16;;;;;;;10.27;4.25;;;20.10;99.90;;;;;;5449434;26;20788;-71
2024/04/12 08:49:51;;;;;;;9.45;4.85;;;20.30;99.90;;;;;;5421798;26;20583;-76
2024/04/12 08:52:24;;;;;;;8.30;5.10;;;20.30;99.90;;;;;;5453864;26;20692;-74
2024/04/12 08:54:54;;;;;;;9.32;4.10;;;20.30;99.90;;;;;;5452866;26;20694;-74
2024/04/12 08:57:22;;;;;;;9.43;4.93;;;20.30;99.90;;;;;;5453183;26;20287;-73
2024/04/12 08:59:48;;;;;;;7.60;4.07;;;20.50;99.90;;;;;;5453694;26;20236;-72
2024/04/12 09:02:14;;;;;;;10.90;4.35;;;20.60;99.90;;;;;;5453502;26;20278;-73
2024/04/12 09:04:40;;;;;;;10.48;4.38;;;20.70;99.90;;;;;;5420192;26;20244;-74
2024/04/12 09:07:12;;;;;;;9.55;4.78;;;20.90;99.90;;;;;;5452990;26;20851;-74
2024/04/12 09:09:37;;;;;;;5.80;4.22;;;20.90;99.90;;;;;;5422772;26;20239;-74
2024/04/12 09:12:12;;;;;;;19.58;5.07;;;21.10;99.90;;;;;;5424033;26;20251;-73
2024/04/12 09:14:41;;;;;;;11.88;4.10;;;21.20;99.90;;;;;;5455145;26;20328;-72
2024/04/12 09:17:14;;;;;;;9.27;3.72;;;21.40;99.90;;;;;;5454208;26;20341;-71
2024/04/12 09:19:40;;;;;;;6.57;3.88;;;21.50;99.90;;;;;;5452464;26;20742;-73
2024/04/12 09:22:17;;;;;;;8.38;4.20;;;21.70;99.90;;;;;;5453338;26;20227;-74
2024/04/12 09:24:48;;;;;;;9.77;4.90;;;21.60;99.90;;;;;;5418493;26;20231;-72
2024/04/12 09:27:22;;;;;;;7.00;4.10;;;21.40;99.90;;;;;;5437410;26;20235;-73
2024/04/12 09:29:54;;;;;;;5.40;3.22;;;21.50;99.90;;;;;;5454712;26;20251;-73
2024/04/12 09:35:13;;;;;;;7.55;3.97;;;21.80;99.90;;;;;;5443166;26;20276;-73
2024/04/12 09:37:54;;;;;;;7.18;4.32;;;21.80;99.90;;;;;;5418287;26;20590;-73
2024/04/12 09:40:28;;;;;;;7.68;4.15;;;21.90;99.90;;;;;;5453288;26;20352;-74
2024/04/12 09:45:45;;;;;;;9.90;5.10;;;22.10;99.90;;;;;;5452967;26;20224;-73
2024/04/12 10:38:59;;;;;;;6.45;3.58;;;23.00;99.90;;;;;;5437732;26;20313;-73
2024/04/12 10:41:35;;;;;;;7.40;3.35;;;23.10;99.90;;;;;;5451450;26;20251;-73
2024/04/12 10:44:03;;;;;;;12.00;4.60;;;23.00;99.90;;;;;;5450367;26;20227;-73
2024/04/12 10:46:29;;;;;;;7.63;5.03;;;23.00;99.90;;;;;;5450461;26;20244;-72
2024/04/12 10:48:59;;;;;;;8.55;3.30;;;23.10;99.90;;;;;;5453505;26;20329;-74
2024/04/12 10:51:26;;;;;;;7.57;3.70;;;23.10;99.90;;;;;;5423044;26;20698;-73
2024/04/12 10:53:51;;;;;;;4.38;3.28;;;23.10;99.90;;;;;;5417900;26;20251;-73
2024/04/12 10:56:20;;;;;;;4.15;3.03;;;23.10;99.90;;;;;;5419858;26;20773;-73
2024/04/12 10:58:56;;;;;;;6.70;3.00;;;23.10;99.90;;;;;;5451260;26;20722;-74
2024/04/12 11:01:23;;;;;;;5.40;2.80;;;23.00;99.90;;;;;;5449956;26;20245;-73
2024/04/12 11:03:56;;;;;;;8.00;3.28;;;22.90;99.90;;;;;;5418304;26;20592;-74
2024/04/12 11:06:31;;;;;;;3.50;2.50;;;22.80;99.90;;;;;;5451068;26;20236;-74
2024/04/12 11:09:06;;;;;;;3.72;2.70;;;22.80;99.90;;;;;;5419394;26;20355;-74
2024/04/12 11:11:42;;;;;;;7.63;3.13;;;22.80;99.40;;;;;;5451160;26;20227;-73
2024/04/12 11:14:15;;;;;;;4.78;2.95;;;22.80;98.40;;;;;;5463887;21;20354;-72
2024/04/12 11:33:31;;;;;;;5.53;2.90;;;23.20;96.30;;;;;;5451575;26;20748;-73
2024/04/12 11:36:10;;;;;;;3.30;2.60;;;23.10;95.40;;;;;;5450880;26;20622;-72
2024/04/12 11:38:39;;;;;;;3.10;2.28;;;23.00;95.80;;;;;;5452382;26;20235;-72
2024/04/12 11:41:06;;;;;;;5.25;2.60;;;23.00;95.90;;;;;;5448673;26;20239;-73
2024/04/12 11:43:32;;;;;;;4.53;2.25;;;22.90;94.60;;;;;;5451767;26;20243;-74
2024/04/12 11:46:01;;;;;;;6.43;2.35;;;22.90;95.10;;;;;;5452095;26;20702;-72
2024/04/12 11:48:31;;;;;;;4.40;2.45;;;23.00;93.70;;;;;;5454469;26;20227;-72
2024/04/12 11:50:57;;;;;;;5.28;2.45;;;23.00;94.10;;;;;;5440940;26;20245;-71
2024/04/12 11:53:25;;;;;;;5.35;2.63;;;23.00;93.00;;;;;;5458684;26;20694;-72
2024/04/12 11:55:50;;;;;;;3.55;2.70;;;22.90;93.00;;;;;;5456919;26;20749;-72
2024/04/12 11:58:16;;;;;;;5.72;2.63;;;22.80;92.70;;;;;;5454680;26;20308;-72
2024/04/12 12:00:42;;;;;;;5.95;2.20;;;22.80;92.10;;;;;;5452390;26;20324;-72
2024/04/12 12:03:15;;;;;;;3.08;1.85;;;22.90;92.20;;;;;;5460120;26;20333;-71
2024/04/12 12:05:42;;;;;;;4.75;2.13;;;23.00;92.00;;;;;;5455412;26;20597;-71
2024/04/12 12:08:12;;;;;;;4.65;2.35;;;23.10;92.20;;;;;;5454321;26;20338;-72
2024/04/12 12:10:41;;;;;;;5.45;2.47;;;23.20;92.40;;;;;;5451051;26;20658;-71
2024/04/12 12:13:06;;;;;;;4.85;2.40;;;23.30;91.90;;;;;;5453549;26;20235;-71
2024/04/12 12:15:32;;;;;;;6.10;2.35;;;23.40;91.20;;;;;;5453274;26;20235;-71
2024/04/12 12:17:57;;;;;;;5.85;2.42;;;23.50;91.10;;;;;;5452371;26;20231;-72
2024/04/12 12:20:23;;;;;;;5.07;2.00;;;23.50;90.10;;;;;;5453668;26;20239;-71
2024/04/12 12:22:49;;;;;;;11.30;1.92;;;23.40;90.10;;;;;;5452018;26;20236;-71
2024/04/12 12:25:16;;;;;;;6.78;2.10;;;23.40;95.20;;;;;;5452595;26;20606;-72
2024/04/12 12:27:43;;;;;;;4.32;2.55;;;23.30;92.40;;;;;;5453771;26;20330;-71
2024/04/12 12:30:14;;;;;;;3.85;1.95;;;23.20;91.30;;;;;;5453997;26;20228;-71
2024/04/12 12:32:44;;;;;;;5.35;2.22;;;23.10;92.80;;;;;;5452497;26;20243;-71
2024/04/12 12:35:18;;;;;;;5.60;2.65;;;23.00;88.20;;;;;;5438223;26;20244;-69
2024/04/12 12:37:48;;;;;;;5.05;2.13;;;22.90;86.40;;;;;;5453324;26;20228;-70
2024/04/12 12:40:18;;;;;;;5.20;2.45;;;22.90;89.80;;;;;;5457893;26;20287;-70
2024/04/12 12:42:46;;;;;;;4.05;2.60;;;22.80;91.90;;;;;;5456237;26;20240;-70
2024/04/12 12:45:15;;;;;;;3.10;2.28;;;22.80;90.80;;;;;;5452004;26;20670;-73
2024/04/12 12:47:41;;;;;;;3.05;2.03;;;23.00;88.40;;;;;;5450490;26;20277;-72
2024/04/12 12:50:16;;;;;;;4.13;2.13;;;23.00;89.00;;;;;;5445828;26;20228;-70
2024/04/12 12:52:43;;;;;;;9.73;2.17;;;23.00;90.50;;;;;;5452483;26;20298;-71
2024/04/12 12:55:11;;;;;;;5.78;1.98;;;22.80;91.10;;;;;;5442048;26;20254;-73
2024/04/12 12:57:39;;;;;;;6.57;2.38;;;22.80;90.60;;;;;;5450179;26;20232;-72
2024/04/12 13:00:05;;;;;;;3.90;1.77;;;22.90;87.20;;;;;;5447707;26;20679;-71
2024/04/12 13:02:31;;;;;;;6.95;1.92;;;23.00;86.40;;;;;;5454736;26;20282;-71
2024/04/12 13:04:58;;;;;;;4.50;1.88;;;23.00;89.20;;;;;;5452832;26;20235;-71
2024/04/12 13:07:24;;;;;;;5.80;2.30;;;23.10;90.20;;;;;;5444172;26;20304;-71
2024/04/12 13:09:55;;;;;;;5.45;2.05;;;23.00;90.00;;;;;;5448307;26;20321;-70
2024/04/12 13:12:28;;;;;;;4.20;2.22;;;22.90;90.20;;;;;;5454539;26;20239;-71
2024/04/12 13:14:57;;;;;;;3.28;1.90;;;22.90;87.90;;;;;;5456397;26;20270;-72
2024/04/12 13:17:23;;;;;;;4.28;1.90;;;22.80;88.40;;;;;;5449270;26;20231;-71
2024/04/12 13:19:49;;;;;;;4.32;1.80;;;22.90;88.50;;;;;;5454776;26;20270;-71
2024/04/12 13:22:17;;;;;;;2.60;1.42;;;23.00;90.00;;;;;;5450783;26;20361;-71
2024/04/12 13:24:43;;;;;;;10.32;1.90;;;23.10;90.60;;;;;;5450167;26;20243;-70
2024/04/12 13:27:09;;;;;;;5.82;1.70;;;23.00;91.20;;;;;;5483522;26;20262;-71
2024/04/12 13:29:36;;;;;;;3.78;2.20;;;22.80;91.10;;;;;;5456264;26;20227;-72
2024/04/12 13:32:05;;;;;;;3.28;1.70;;;22.70;91.30;;;;;;5454841;26;20576;-72
2024/04/12 13:34:32;;;;;;;5.72;1.80;;;22.60;91.50;;;;;;5442020;26;20287;-72
2024/04/12 13:36:58;;;;;;;5.22;1.85;;;22.60;91.80;;;;;;5442784;26;20251;-71
2024/04/12 13:39:25;;;;;;;3.58;1.77;;;22.60;92.00;;;;;;5454138;26;20263;-71
2024/04/12 13:41:56;;;;;;;5.32;1.80;;;22.50;91.80;;;;;;5453094;26;20231;-72
2024/04/12 13:44:25;;;;;;;3.13;2.25;;;22.50;91.50;;;;;;5448552;26;20232;-70
2024/04/12 13:52:26;;;;;;;3.17;1.60;;;22.70;91.90;;;;;;5440475;26;20822;-72
2024/04/12 13:54:51;;;;;;;2.72;1.40;;;22.80;91.90;;;;;;5451833;26;20275;-72
2024/04/12 13:57:17;;;;;;;5.45;1.55;;;23.00;92.00;;;;;;5453283;26;20240;-70
2024/04/12 13:59:44;;;;;;;2.28;1.13;;;23.00;92.10;;;;;;5452663;26;20240;-71
2024/04/12 14:02:10;;;;;;;3.60;1.23;;;23.00;92.80;;;;;;5457764;26;20228;-70
2024/04/12 14:04:38;;;;;;;3.25;1.38;;;23.10;92.00;;;;;;5454409;26;20275;-70
2024/04/12 14:07:04;;;;;;;1.98;1.40;;;23.00;92.60;;;;;;5453940;26;20323;-71
2024/04/12 14:09:30;;;;;;;3.05;1.50;;;22.90;93.00;;;;;;5452270;26;20224;-71
2024/04/12 14:11:56;;;;;;;5.75;1.40;;;22.80;93.00;;;;;;5450700;26;20324;-72
2024/04/12 14:14:23;;;;;;;1.35;1.10;;;22.60;92.80;;;;;;5451063;26;20253;-71
2024/04/12 14:16:51;;;;;;;2.38;0.90;;;22.50;93.80;;;;;;5452934;26;20278;-73
2024/04/12 14:19:17;;;;;;;3.65;1.35;;;22.60;94.30;;;;;;5456271;26;20266;-72
2024/04/12 14:21:51;;;;;;;4.47;1.40;;;22.70;94.30;;;;;;5455448;26;20278;-72
2024/04/12 14:27:03;;;;;;;3.38;1.20;;;22.70;94.20;;;;;;5457061;26;20270;-72